createdAt,value
2018-12-07T00:00:13.882Z,11.60
2018-12-07T00:02:42.959Z,11.60
2018-12-07T00:05:12.748Z,11.60
2018-12-07T00:07:42.593Z,11.60
2018-12-07T00:10:11.866Z,11.70
2018-12-07T00:12:42.131Z,11.60
2018-12-07T00:15:12.007Z,11.60
2018-12-07T00:17:41.782Z,11.60
2018-12-07T00:20:11.071Z,11.60
2018-12-07T00:22:40.916Z,11.50
2018-12-07T00:25:09.376Z,11.50
2018-12-07T00:27:37.803Z,11.50
2018-12-07T00:30:06.371Z,11.40
2018-12-07T00:32:34.705Z,11.40
2018-12-07T00:35:04.882Z,11.40
2018-12-07T00:37:34.351Z,11.40
2018-12-07T00:40:05.491Z,11.40
2018-12-07T00:42:35.754Z,11.40
2018-12-07T00:45:05.136Z,11.40
2018-12-07T00:47:34.182Z,11.40
2018-12-07T00:50:04.361Z,11.40
2018-12-07T00:52:33.415Z,11.40
2018-12-07T00:55:02.588Z,11.30
2018-12-07T00:57:31.872Z,11.30
2018-12-07T01:00:01.739Z,11.30
2018-12-07T01:02:31.032Z,11.30
2018-12-07T01:05:00.881Z,11.30
2018-12-07T01:07:30.163Z,11.30
2018-12-07T01:09:59.337Z,11.20
2018-12-07T01:12:27.710Z,11.30
2018-12-07T01:14:56.058Z,11.30
2018-12-07T01:17:24.505Z,11.30
2018-12-07T01:19:54.183Z,11.30
2018-12-07T01:22:23.381Z,11.30
2018-12-07T01:24:52.681Z,11.40
2018-12-07T01:27:21.954Z,11.30
2018-12-07T01:29:50.989Z,11.30
2018-12-07T01:32:20.246Z,11.30
2018-12-07T01:34:50.355Z,11.30
2018-12-07T01:37:20.128Z,11.30
2018-12-07T01:39:50.043Z,11.30
2018-12-07T01:42:19.418Z,11.30
2018-12-07T01:44:48.580Z,11.30
2018-12-07T01:47:16.958Z,11.30
2018-12-07T01:49:45.296Z,11.30
2018-12-07T01:52:15.044Z,11.30
2018-12-07T01:54:44.525Z,11.30
2018-12-07T01:57:14.204Z,11.20
2018-12-07T01:59:43.449Z,11.30
2018-12-07T02:02:12.864Z,11.20
2018-12-07T02:04:42.604Z,11.20
2018-12-07T02:07:29.599Z,11.20
2018-12-07T02:09:59.456Z,11.20
2018-12-07T02:12:28.101Z,11.30
2018-12-07T02:14:56.626Z,11.20
2018-12-07T02:17:25.010Z,11.30
2018-12-07T02:19:54.275Z,11.20
2018-12-07T02:22:24.356Z,11.20
2018-12-07T02:24:52.921Z,11.30
2018-12-07T02:27:22.427Z,11.20
2018-12-07T02:29:51.786Z,11.10
2018-12-07T02:32:21.052Z,11.10
2018-12-07T02:34:51.442Z,11.10
2018-12-07T02:37:21.027Z,11.10
2018-12-07T02:39:51.137Z,11.10
2018-12-07T02:42:19.511Z,11.10
2018-12-07T02:44:47.876Z,11.10
2018-12-07T02:47:16.221Z,11.10
2018-12-07T02:49:44.727Z,11.10
2018-12-07T02:52:14.327Z,11.10
2018-12-07T02:54:44.649Z,11.10
2018-12-07T02:57:14.386Z,11.20
2018-12-07T02:59:44.388Z,11.10
2018-12-07T03:02:13.437Z,11.20
2018-12-07T03:04:43.605Z,11.20
2018-12-07T03:07:13.397Z,11.20
2018-12-07T03:09:42.562Z,11.20
2018-12-07T03:12:11.859Z,11.20
2018-12-07T03:14:41.250Z,11.20
2018-12-07T03:17:11.028Z,11.20
2018-12-07T03:19:40.233Z,11.20
2018-12-07T03:22:08.629Z,11.20
2018-12-07T03:24:36.973Z,11.20
2018-12-07T03:27:05.433Z,11.20
2018-12-07T03:29:34.292Z,11.30
2018-12-07T03:32:04.234Z,11.20
2018-12-07T03:34:33.410Z,11.20
2018-12-07T03:37:02.677Z,11.30
2018-12-07T03:39:32.059Z,11.30
2018-12-07T03:42:01.929Z,11.30
2018-12-07T03:44:31.964Z,11.20
2018-12-07T03:47:01.807Z,11.30
2018-12-07T03:49:31.097Z,11.20
2018-12-07T03:52:00.962Z,11.20
2018-12-07T03:54:30.318Z,11.20
2018-12-07T03:57:00.321Z,11.20
2018-12-07T03:59:28.692Z,11.30
2018-12-07T04:01:57.199Z,11.30
2018-12-07T04:04:25.686Z,11.20
2018-12-07T04:06:54.325Z,11.20
2018-12-07T04:09:24.226Z,11.20
2018-12-07T04:11:53.519Z,11.20
2018-12-07T04:14:23.786Z,11.20
2018-12-07T04:16:53.289Z,11.20
2018-12-07T04:19:23.684Z,11.30
2018-12-07T04:21:53.335Z,11.20
2018-12-07T04:24:22.912Z,11.20
2018-12-07T04:26:51.302Z,11.20
2018-12-07T04:29:21.019Z,11.20
2018-12-07T04:31:50.791Z,11.20
2018-12-07T04:34:20.157Z,11.20
2018-12-07T04:36:49.449Z,11.20
2018-12-07T04:39:19.408Z,11.20
2018-12-07T04:41:48.653Z,11.20
2018-12-07T04:44:16.996Z,11.20
2018-12-07T04:46:46.102Z,11.20
2018-12-07T04:49:14.461Z,11.20
2018-12-07T04:51:44.305Z,11.20
2018-12-07T04:54:14.194Z,11.20
2018-12-07T04:56:43.361Z,11.20
2018-12-07T04:59:12.664Z,11.20
2018-12-07T05:01:42.422Z,11.20
2018-12-07T05:04:11.885Z,11.20
2018-12-07T05:06:41.140Z,11.20
2018-12-07T05:09:11.007Z,11.20
2018-12-07T05:11:41.071Z,11.10
2018-12-07T05:14:10.417Z,11.10
2018-12-07T05:16:39.468Z,11.20
2018-12-07T05:19:09.401Z,11.10
2018-12-07T05:21:37.791Z,11.10
2018-12-07T05:24:06.130Z,11.10
2018-12-07T05:26:34.505Z,11.10
2018-12-07T05:29:03.961Z,11.10
2018-12-07T05:31:33.518Z,11.10
2018-12-07T05:34:03.387Z,11.10
2018-12-07T05:36:32.648Z,11.10
2018-12-07T05:39:02.819Z,11.10
2018-12-07T05:41:32.778Z,11.20
2018-12-07T05:44:02.673Z,11.20
2018-12-07T05:46:32.634Z,11.20
2018-12-07T05:49:02.044Z,11.20
2018-12-07T05:51:31.786Z,11.20
2018-12-07T05:54:00.940Z,11.20
2018-12-07T05:56:30.065Z,11.10
2018-12-07T05:58:59.446Z,11.10
2018-12-07T06:01:29.619Z,11.10
2018-12-07T06:03:57.958Z,11.10
2018-12-07T06:06:27.269Z,11.10
2018-12-07T06:08:55.658Z,11.10
2018-12-07T06:11:24.337Z,11.10
2018-12-07T06:13:54.327Z,11.00
2018-12-07T06:16:24.523Z,11.00
2018-12-07T06:18:53.853Z,11.00
2018-12-07T06:21:22.618Z,11.00
2018-12-07T06:23:51.794Z,11.00
2018-12-07T06:26:21.029Z,11.00
2018-12-07T06:28:50.990Z,11.00
2018-12-07T06:31:20.169Z,11.10
2018-12-07T06:33:50.448Z,11.10
2018-12-07T06:36:20.321Z,11.10
2018-12-07T06:38:50.179Z,11.10
2018-12-07T06:41:19.464Z,11.10
2018-12-07T06:43:48.107Z,11.10
2018-12-07T06:46:24.840Z,11.20
2018-12-07T06:49:05.287Z,11.20
2018-12-07T06:54:35.068Z,11.20
2018-12-07T06:57:05.512Z,11.20
2018-12-07T06:59:34.637Z,11.10
2018-12-07T07:02:04.539Z,11.20
2018-12-07T07:04:34.185Z,11.10
2018-12-07T07:07:05.216Z,11.10
2018-12-07T07:09:34.311Z,11.20
2018-12-07T07:12:06.412Z,11.20
2018-12-07T07:14:42.905Z,11.20
2018-12-07T07:17:12.659Z,11.20
2018-12-07T07:19:42.034Z,11.20
2018-12-07T07:22:11.826Z,11.20
2018-12-07T07:24:41.201Z,11.10
2018-12-07T07:27:11.506Z,11.10
2018-12-07T07:29:40.943Z,11.10
2018-12-07T07:32:11.231Z,11.10
2018-12-07T07:34:41.478Z,11.10
2018-12-07T07:37:11.037Z,11.10
2018-12-07T07:39:41.007Z,11.10
2018-12-07T07:42:10.417Z,11.00
2018-12-07T07:44:40.213Z,11.00
2018-12-07T07:47:09.243Z,11.00
2018-12-07T07:49:37.749Z,11.10
2018-12-07T07:52:06.113Z,11.00
2018-12-07T07:54:34.884Z,11.00
2018-12-07T07:57:03.832Z,11.00
2018-12-07T07:59:33.490Z,11.00
2018-12-07T08:02:03.677Z,11.00
2018-12-07T08:04:33.600Z,11.00
2018-12-07T08:07:03.447Z,11.10
2018-12-07T08:09:32.623Z,11.10
2018-12-07T08:12:01.757Z,11.10
2018-12-07T08:14:30.248Z,11.10
2018-12-07T08:17:00.626Z,11.10
2018-12-07T08:19:30.394Z,11.10
2018-12-07T08:22:00.144Z,11.10
2018-12-07T08:24:29.931Z,11.10
2018-12-07T08:26:59.382Z,11.10
2018-12-07T08:29:27.770Z,11.10
2018-12-07T08:31:56.130Z,11.10
2018-12-07T08:34:25.789Z,11.10
2018-12-07T08:36:54.209Z,11.10
2018-12-07T08:39:23.445Z,11.10
2018-12-07T08:41:53.529Z,11.10
2018-12-07T08:44:23.444Z,11.10
2018-12-07T08:46:53.682Z,11.10
2018-12-07T08:49:24.760Z,11.10
2018-12-07T08:51:55.043Z,11.10
2018-12-07T08:54:24.412Z,11.10
2018-12-07T08:56:55.125Z,11.20
2018-12-07T08:59:25.414Z,11.20
2018-12-07T09:01:54.298Z,11.20
2018-12-07T09:04:24.405Z,11.30
2018-12-07T09:06:54.376Z,11.20
2018-12-07T09:09:24.128Z,11.20
2018-12-07T09:11:53.891Z,11.20
2018-12-07T09:14:23.369Z,11.20
2018-12-07T09:16:52.672Z,11.20
2018-12-07T09:19:22.260Z,11.20
2018-12-07T09:21:51.818Z,11.20
2018-12-07T09:24:21.309Z,11.20
2018-12-07T09:26:50.974Z,11.20
2018-12-07T09:29:21.237Z,11.20
2018-12-07T09:31:51.045Z,11.20
2018-12-07T09:34:21.304Z,11.20
2018-12-07T09:36:52.217Z,11.20
2018-12-07T09:39:22.493Z,11.30
2018-12-07T09:41:52.758Z,11.30
2018-12-07T09:44:22.639Z,11.30
2018-12-07T09:46:52.713Z,11.40
2018-12-07T09:49:21.862Z,11.40
2018-12-07T09:51:51.706Z,11.30
2018-12-07T09:54:20.972Z,11.30
2018-12-07T09:56:49.309Z,11.40
2018-12-07T09:59:17.675Z,11.40
2018-12-07T10:01:46.033Z,11.40
2018-12-07T10:04:14.448Z,11.40
2018-12-07T10:06:44.192Z,11.40
2018-12-07T10:09:13.372Z,11.40
2018-12-07T10:11:42.737Z,11.40
2018-12-07T10:14:11.678Z,11.40
2018-12-07T10:16:40.924Z,11.40
2018-12-07T10:19:09.391Z,11.40
2018-12-07T10:21:37.787Z,11.40
2018-12-07T10:24:06.283Z,11.40
2018-12-07T10:26:34.632Z,11.40
2018-12-07T10:29:03.385Z,11.40
2018-12-07T10:31:32.530Z,11.40
2018-12-07T10:34:02.827Z,11.40
2018-12-07T10:36:32.695Z,11.40
2018-12-07T10:39:02.380Z,11.40
2018-12-07T10:41:31.808Z,11.40
2018-12-07T10:44:01.012Z,11.40
2018-12-07T10:46:30.155Z,11.40
2018-12-07T10:48:58.493Z,11.40
2018-12-07T10:51:27.123Z,11.40
2018-12-07T10:53:55.487Z,11.40
2018-12-07T10:56:24.346Z,11.30
2018-12-07T10:58:56.004Z,11.30
2018-12-07T11:01:31.616Z,11.30
2018-12-07T11:04:06.697Z,11.30
2018-12-07T11:06:42.702Z,11.40
2018-12-07T11:09:18.440Z,11.40
2018-12-07T11:11:48.794Z,11.40
2018-12-07T11:14:19.157Z,11.40
2018-12-07T11:16:53.331Z,11.50
2018-12-07T11:19:28.533Z,11.50
2018-12-07T11:22:02.712Z,11.50
2018-12-07T11:24:36.767Z,11.50
2018-12-07T11:27:11.075Z,11.50
2018-12-07T11:29:46.729Z,11.50
2018-12-07T11:32:16.140Z,11.50
2018-12-07T11:34:48.064Z,11.50
2018-12-07T11:37:16.416Z,11.50
2018-12-07T11:39:44.763Z,11.50
2018-12-07T11:42:14.419Z,11.50
2018-12-07T11:44:43.687Z,11.50
2018-12-07T11:47:12.440Z,11.50
2018-12-07T11:49:42.716Z,11.50
2018-12-07T11:52:12.659Z,11.50
2018-12-07T11:54:42.137Z,11.50
2018-12-07T11:57:11.102Z,11.50
2018-12-07T11:59:41.254Z,11.50
2018-12-07T12:02:11.054Z,11.50
2018-12-07T12:04:41.254Z,11.50
2018-12-07T12:07:11.012Z,11.50
2018-12-07T12:09:40.869Z,11.50
2018-12-07T12:12:09.430Z,11.50
2018-12-07T12:14:38.675Z,11.50
2018-12-07T12:17:08.606Z,11.40
2018-12-07T12:19:37.161Z,11.40
2018-12-07T12:22:05.850Z,11.40
2018-12-07T12:24:34.249Z,11.40
2018-12-07T12:27:03.400Z,11.40
2018-12-07T12:29:33.631Z,11.40
2018-12-07T12:32:03.618Z,11.30
2018-12-07T12:34:33.494Z,11.40
2018-12-07T12:37:02.134Z,11.30
2018-12-07T12:39:31.517Z,11.30
2018-12-07T12:42:01.774Z,11.30
2018-12-07T12:44:30.144Z,11.40
2018-12-07T12:46:59.419Z,11.40
2018-12-07T12:49:28.689Z,11.40
2018-12-07T12:51:57.015Z,11.40
2018-12-07T12:54:25.384Z,11.40
2018-12-07T12:56:54.249Z,11.40
2018-12-07T12:59:24.136Z,11.40
2018-12-07T13:01:53.409Z,11.50
2018-12-07T13:04:23.678Z,11.50
2018-12-07T13:06:53.359Z,11.50
2018-12-07T13:09:22.649Z,11.50
2018-12-07T13:11:54.251Z,11.60
2018-12-07T13:14:23.597Z,11.50
2018-12-07T13:16:52.585Z,11.60
2018-12-07T13:19:22.994Z,11.60
2018-12-07T13:21:52.654Z,11.60
2018-12-07T13:24:22.862Z,11.60
2018-12-07T13:26:52.625Z,11.60
2018-12-07T13:29:22.079Z,11.60
2018-12-07T13:31:51.891Z,11.60
2018-12-07T13:34:21.732Z,11.60
2018-12-07T13:36:50.894Z,11.60
2018-12-07T13:39:20.167Z,11.70
2018-12-07T13:41:50.594Z,11.70
2018-12-07T13:44:20.052Z,11.70
2018-12-07T13:46:49.445Z,11.70
2018-12-07T13:49:19.657Z,11.70
2018-12-07T13:51:49.519Z,11.70
2018-12-07T13:54:21.749Z,11.70
2018-12-07T13:56:50.466Z,11.70
2018-12-07T13:59:20.285Z,11.80
2018-12-07T14:01:50.312Z,11.80
2018-12-07T14:04:19.483Z,11.80
2018-12-07T14:06:49.632Z,11.80
2018-12-07T14:09:19.490Z,11.80
2018-12-07T14:11:50.868Z,11.80
2018-12-07T14:14:21.226Z,11.80
2018-12-07T14:16:51.892Z,11.80
2018-12-07T14:19:21.870Z,11.80
2018-12-07T14:21:50.922Z,11.80
2018-12-07T14:24:20.441Z,11.90
2018-12-07T14:26:50.217Z,11.90
2018-12-07T14:29:20.212Z,11.80
2018-12-07T14:31:50.318Z,11.80
2018-12-07T14:34:20.285Z,11.90
2018-12-07T14:36:50.351Z,11.90
2018-12-07T14:39:20.374Z,11.90
2018-12-07T14:41:50.334Z,11.90
2018-12-07T14:44:20.187Z,11.90
2018-12-07T14:46:50.475Z,11.90
2018-12-07T14:49:19.051Z,11.90
2018-12-07T14:51:47.574Z,11.90
2018-12-07T14:54:17.908Z,11.90
2018-12-07T14:56:46.390Z,11.90
2018-12-07T14:59:15.188Z,11.90
2018-12-07T15:01:44.376Z,11.90
2018-12-07T15:04:14.752Z,12.00
2018-12-07T15:06:43.552Z,11.90
2018-12-07T15:09:13.626Z,11.90
2018-12-07T15:11:43.586Z,11.90
2018-12-07T15:14:13.552Z,12.00
2018-12-07T15:16:42.374Z,12.00
2018-12-07T15:19:11.779Z,12.00
2018-12-07T15:21:41.184Z,12.00
2018-12-07T15:24:11.295Z,12.00
2018-12-07T15:26:41.899Z,12.00
2018-12-07T15:29:11.097Z,12.00
2018-12-07T15:31:40.282Z,12.00
2018-12-07T15:34:09.617Z,12.00
2018-12-07T15:36:43.695Z,11.90
2018-12-07T15:39:13.350Z,11.90
2018-12-07T15:41:42.622Z,11.80
2018-12-07T15:44:10.987Z,11.70
2018-12-07T15:46:41.306Z,11.60
2018-12-07T15:49:10.959Z,11.60
2018-12-07T15:51:41.016Z,11.50
2018-12-07T15:54:12.067Z,11.40
2018-12-07T15:56:41.768Z,11.30
2018-12-07T15:59:11.193Z,11.30
2018-12-07T16:01:40.988Z,11.20
2018-12-07T16:04:09.621Z,11.20
2018-12-07T16:06:39.393Z,11.10
2018-12-07T16:09:09.635Z,11.00
2018-12-07T16:11:39.528Z,10.90
2018-12-07T16:14:09.431Z,10.80
2018-12-07T16:16:38.304Z,10.70
2018-12-07T16:19:06.775Z,10.70
2018-12-07T16:21:35.440Z,10.60
2018-12-07T16:24:04.246Z,10.60
2018-12-07T16:26:33.482Z,10.60
2018-12-07T16:29:03.525Z,10.70
2018-12-07T16:31:33.196Z,10.70
2018-12-07T16:34:02.709Z,10.70
2018-12-07T16:36:32.830Z,10.70
2018-12-07T16:39:02.763Z,10.60
2018-12-07T16:41:32.973Z,10.70
2018-12-07T16:44:02.942Z,10.70
2018-12-07T16:46:31.662Z,10.80
2018-12-07T16:49:02.016Z,10.80
2018-12-07T16:51:32.122Z,10.80
2018-12-07T16:54:01.080Z,10.90
2018-12-07T16:56:31.426Z,11.00
2018-12-07T16:59:01.795Z,11.00
2018-12-07T17:01:31.075Z,11.00
2018-12-07T17:04:00.969Z,11.00
2018-12-07T17:06:30.318Z,11.10
2018-12-07T17:09:00.700Z,11.20
2018-12-07T17:11:30.192Z,11.10
2018-12-07T17:13:59.493Z,11.20
2018-12-07T17:16:29.606Z,11.10
2018-12-07T17:18:59.580Z,11.10
2018-12-07T17:21:28.172Z,11.00
2018-12-07T17:23:56.604Z,11.00
2018-12-07T17:26:24.988Z,11.00
2018-12-07T17:28:54.338Z,11.00
2018-12-07T17:31:24.416Z,11.00
2018-12-07T17:33:54.782Z,11.00
2018-12-07T17:36:24.492Z,10.90
2018-12-07T17:38:54.443Z,10.90
2018-12-07T17:41:23.639Z,10.90
2018-12-07T17:43:52.922Z,10.80
2018-12-07T17:46:23.080Z,10.80
2018-12-07T17:48:53.584Z,10.70
2018-12-07T17:51:24.018Z,10.60
2018-12-07T17:53:53.545Z,10.50
2018-12-07T17:56:23.519Z,10.50
2018-12-07T17:58:53.395Z,10.40
2018-12-07T18:01:22.705Z,10.40
2018-12-07T18:03:52.945Z,10.40
2018-12-07T18:06:22.634Z,10.30
2018-12-07T18:08:52.733Z,10.30
2018-12-07T18:11:23.092Z,10.40
2018-12-07T18:13:52.549Z,10.30
2018-12-07T18:16:22.307Z,10.30
2018-12-07T18:18:51.700Z,10.20
2018-12-07T18:21:21.414Z,10.20
2018-12-07T18:23:51.856Z,10.20
2018-12-07T18:26:21.853Z,10.20
2018-12-07T18:28:50.553Z,10.30
2018-12-07T18:31:20.098Z,10.30
2018-12-07T18:33:49.509Z,10.40
2018-12-07T18:36:19.946Z,10.40
2018-12-07T18:38:49.497Z,10.40
2018-12-07T18:41:19.487Z,10.40
2018-12-07T18:43:49.366Z,10.30
2018-12-07T18:46:20.084Z,10.30
2018-12-07T18:48:50.449Z,10.30
2018-12-07T18:51:20.379Z,10.20
2018-12-07T18:53:50.382Z,10.20
2018-12-07T18:56:20.236Z,10.10
2018-12-07T18:58:50.307Z,10.10
2018-12-07T19:01:18.836Z,10.10
2018-12-07T19:03:47.391Z,10.10
2018-12-07T19:06:16.062Z,10.20
2018-12-07T19:08:45.115Z,10.20
2018-12-07T19:11:14.426Z,10.10
2018-12-07T19:13:44.427Z,10.10
2018-12-07T19:16:14.192Z,10.10
2018-12-07T19:18:43.349Z,10.10
2018-12-07T19:21:11.861Z,10.10
2018-12-07T19:23:41.940Z,10.10
2018-12-07T19:26:12.293Z,10.10
2018-12-07T19:28:42.090Z,10.10
2018-12-07T19:31:12.067Z,9.80
2018-12-07T19:33:42.085Z,9.50
2018-12-07T19:36:10.984Z,9.40
2018-12-07T19:38:39.485Z,9.10
2018-12-07T19:41:09.566Z,9.00
2018-12-07T19:43:40.349Z,8.90
2018-12-07T19:46:09.610Z,8.70
2018-12-07T19:48:39.451Z,8.60
2018-12-07T19:51:09.473Z,8.50
2018-12-07T19:53:39.370Z,8.50
2018-12-07T19:56:07.816Z,8.50
2018-12-07T19:58:36.243Z,8.40
2018-12-07T20:01:04.699Z,8.30
2018-12-07T20:03:34.824Z,8.30
2018-12-07T20:06:06.719Z,8.20
2018-12-07T20:08:36.848Z,8.20
2018-12-07T20:11:05.593Z,8.20
2018-12-07T20:13:34.400Z,8.10
2018-12-07T20:16:04.090Z,8.10
2018-12-07T20:18:34.651Z,8.00
2018-12-07T20:21:04.198Z,8.00
2018-12-07T20:23:32.970Z,7.90
2018-12-07T20:26:02.669Z,7.90
2018-12-07T20:28:33.031Z,7.80
2018-12-07T20:31:02.641Z,7.80
2018-12-07T20:33:32.815Z,7.70
2018-12-07T20:36:03.437Z,7.70
2018-12-07T20:38:33.535Z,7.70
2018-12-07T20:41:03.498Z,7.70
2018-12-07T20:43:34.911Z,7.70
2018-12-07T20:46:04.261Z,7.60
2018-12-07T20:48:33.418Z,7.60
2018-12-07T20:51:02.705Z,7.60
2018-12-07T20:53:32.916Z,7.60
2018-12-07T20:56:04.589Z,7.50
2018-12-07T20:58:35.393Z,7.50
2018-12-07T21:01:04.456Z,7.40
2018-12-07T21:07:31.772Z,7.40
2018-12-07T21:13:36.992Z,7.40
2018-12-07T21:19:27.331Z,7.30
2018-12-07T21:21:57.685Z,7.20
2018-12-07T21:24:27.221Z,7.20
2018-12-07T21:26:56.692Z,7.20
2018-12-07T21:29:27.699Z,7.20
2018-12-07T21:32:00.025Z,7.10
2018-12-07T21:35:02.302Z,7.10
2018-12-07T21:37:31.899Z,7.00
2018-12-07T21:40:10.546Z,7.00
2018-12-07T21:42:40.294Z,7.00
2018-12-07T21:45:09.058Z,7.00
2018-12-07T21:51:05.533Z,6.90
2018-12-07T21:53:35.136Z,7.00
2018-12-07T21:56:04.298Z,7.00
2018-12-07T21:58:33.485Z,7.10
2018-12-07T22:01:03.765Z,7.10
2018-12-07T22:03:34.150Z,7.10
2018-12-07T22:06:04.538Z,7.00
2018-12-07T22:08:34.362Z,7.00
2018-12-07T22:11:04.450Z,7.00
2018-12-07T22:13:34.265Z,7.10
2018-12-07T22:16:04.209Z,7.10
2018-12-07T22:18:34.164Z,7.10
2018-12-07T22:21:04.084Z,7.10
2018-12-07T22:23:34.201Z,7.10
2018-12-07T22:26:05.078Z,7.10
2018-12-07T22:28:34.779Z,7.10
2018-12-07T22:31:04.264Z,7.00
2018-12-07T22:33:34.366Z,7.00
2018-12-07T22:36:03.093Z,7.00
2018-12-07T22:38:33.326Z,7.00
2018-12-07T22:41:02.931Z,6.90
2018-12-07T22:43:32.850Z,6.90
2018-12-07T22:46:02.700Z,6.90
2018-12-07T22:48:32.934Z,6.90
2018-12-07T22:51:03.378Z,6.90
2018-12-07T22:53:33.753Z,6.90
2018-12-07T22:56:03.416Z,6.80
2018-12-07T22:58:32.947Z,6.80
2018-12-07T23:01:02.927Z,6.80
2018-12-07T23:03:32.688Z,6.90
2018-12-07T23:06:02.520Z,6.90
2018-12-07T23:08:31.864Z,6.80
2018-12-07T23:11:01.743Z,6.70
2018-12-07T23:13:31.104Z,6.70
2018-12-07T23:16:01.059Z,6.70
2018-12-07T23:18:31.050Z,6.70
2018-12-07T23:21:01.301Z,6.70
2018-12-07T23:23:31.085Z,6.70
2018-12-07T23:25:59.723Z,6.70
2018-12-07T23:28:29.962Z,6.60
2018-12-07T23:30:59.506Z,6.70
2018-12-07T23:33:29.253Z,6.70
2018-12-07T23:35:57.618Z,6.80
2018-12-07T23:38:25.945Z,6.80
2018-12-07T23:40:54.370Z,6.80
2018-12-07T23:43:23.982Z,6.80
2018-12-07T23:45:53.433Z,6.70
2018-12-07T23:48:23.357Z,6.70
2018-12-07T23:50:52.610Z,6.60
2018-12-07T23:53:22.852Z,6.50
2018-12-07T23:55:53.092Z,6.50
2018-12-07T23:58:22.646Z,6.40
